Time;durP1;ratioP1;P1;durP2;ratioP2;P2;SDS_P1;SDS_P2;PMS_P1;PMS_P2;Temp;Humidity;BMP_temperature;BMP_pressure;BME280_temperature;BME280_humidity;BME280_pressure;Samples;Min_cycle;Max_cycle;Signal;HPM_P1;HPM_P2
2023/04/09 00:02:11;;;;;;;19.93;14.50;;;;;;;8.25;65.54;96808.72;4947407;28;20916;-69
2023/04/09 00:04:36;;;;;;;17.33;14.97;;;;;;;8.28;66.00;96807.78;4954795;28;20521;-70
2023/04/09 00:07:02;;;;;;;16.13;14.37;;;;;;;7.97;66.57;96807.78;4955127;28;20170;-70
2023/04/09 00:09:27;;;;;;;22.30;14.80;;;;;;;7.76;66.96;96809.19;4946781;28;20206;-69
2023/04/09 00:11:52;;;;;;;18.93;15.90;;;;;;;7.72;67.59;96811.03;4946991;28;20208;-70
2023/04/09 00:14:18;;;;;;;33.97;16.40;;;;;;;7.79;67.74;96807.34;4946791;28;20183;-69
2023/04/09 00:16:43;;;;;;;27.40;16.87;;;;;;;7.72;68.16;96807.56;4954863;28;20166;-70
2023/04/09 00:19:10;;;;;;;31.90;15.30;;;;;;;7.90;67.03;96812.31;4952985;28;20206;-70
2023/04/09 00:21:36;;;;;;;18.33;15.70;;;;;;;8.09;66.66;96803.97;4966224;28;20228;-70
2023/04/09 00:24:01;;;;;;;20.10;15.07;;;;;;;7.96;67.06;96809.53;4963865;28;20433;-70
2023/04/09 00:26:27;;;;;;;17.27;14.17;;;;;;;7.69;67.94;96808.50;4946085;28;20182;-70
2023/04/09 00:28:52;;;;;;;17.97;15.60;;;;;;;7.79;67.03;96801.28;4948082;28;20190;-69
2023/04/09 00:31:18;;;;;;;15.70;13.63;;;;;;;7.79;67.55;96799.50;4949674;28;20184;-70
2023/04/09 00:33:43;;;;;;;16.70;14.57;;;;;;;7.77;67.73;96801.34;4946667;28;20225;-69
2023/04/09 00:36:09;;;;;;;17.50;15.00;;;;;;;7.64;67.97;96805.16;4945356;28;20186;-69
2023/04/09 00:38:34;;;;;;;19.20;14.47;;;;;;;7.73;66.95;96798.84;4948578;28;21144;-70
2023/04/09 00:41:00;;;;;;;14.97;13.40;;;;;;;7.52;67.85;96800.25;4949271;28;20265;-69
2023/04/09 00:43:25;;;;;;;17.90;15.20;;;;;;;7.50;68.08;96802.88;4949094;28;20178;-69
2023/04/09 00:45:51;;;;;;;17.70;15.80;;;;;;;7.66;67.92;96798.13;4948800;28;20596;-70
2023/04/09 00:48:16;;;;;;;16.80;14.77;;;;;;;7.74;67.55;96801.41;4949723;28;20658;-70
2023/04/09 00:50:42;;;;;;;16.13;14.50;;;;;;;7.54;67.77;96801.06;4953667;28;20194;-70
2023/04/09 00:53:11;;;;;;;19.93;15.70;;;;;;;7.57;68.06;96795.75;4959822;28;20263;-70
2023/04/09 00:55:39;;;;;;;17.60;15.67;;;;;;;7.82;67.43;96804.69;4964217;28;20177;-70
2023/04/09 00:58:05;;;;;;;23.53;15.70;;;;;;;7.95;66.76;96805.19;4960577;28;20979;-70
2023/04/09 01:00:30;;;;;;;19.40;15.57;;;;;;;8.02;66.19;96800.66;4967749;28;20456;-69
2023/04/09 01:02:57;;;;;;;17.43;15.37;;;;;;;8.13;65.98;96806.47;4952963;28;20181;-69
2023/04/09 01:05:33;;;;;;;16.80;14.97;;;;;;;7.98;66.09;96809.47;4952945;28;20597;-70
2023/04/09 01:08:17;;;;;;;15.77;14.10;;;;;;;8.10;66.72;96806.53;4953289;28;20448;-70
2023/04/09 01:11:05;;;;;;;16.53;14.27;;;;;;;8.08;66.59;96797.91;4952383;28;20942;-70
2023/04/09 01:13:46;;;;;;;15.23;13.67;;;;;;;7.99;67.07;96803.38;4965008;28;20492;-70
2023/04/09 01:16:15;;;;;;;20.50;12.40;;;;;;;7.97;66.85;96808.63;4968903;28;21183;-70
2023/04/09 01:18:48;;;;;;;16.60;13.57;;;;;;;8.07;66.01;96804.84;4960491;28;20469;-69
2023/04/09 01:21:18;;;;;;;22.80;14.07;;;;;;;7.99;66.38;96801.59;4952396;28;20911;-70
2023/04/09 01:24:16;;;;;;;16.37;14.43;;;;;;;8.06;66.51;96797.06;4951748;28;20552;-70
2023/04/09 01:27:16;;;;;;;16.30;13.90;;;;;;;8.03;66.28;96805.88;4961092;28;20432;-69
2023/04/09 01:29:48;;;;;;;15.20;13.60;;;;;;;8.06;66.83;96797.94;4962639;28;20479;-70
2023/04/09 01:32:16;;;;;;;15.50;13.90;;;;;;;7.93;66.79;96790.47;4954358;28;20414;-69
2023/04/09 01:34:43;;;;;;;16.87;14.60;;;;;;;8.02;67.02;96795.44;4951884;28;20465;-69
2023/04/09 01:37:11;;;;;;;15.97;13.90;;;;;;;8.04;66.43;96796.25;4951356;28;20453;-69
2023/04/09 01:39:37;;;;;;;19.40;13.80;;;;;;;8.12;66.13;96793.44;4951499;28;21084;-70
2023/04/09 01:42:04;;;;;;;17.97;14.13;;;;;;;8.00;66.89;96797.22;4952401;28;20918;-70
2023/04/09 01:44:31;;;;;;;19.13;14.67;;;;;;;8.03;66.91;96791.91;4960655;28;20481;-70
2023/04/09 01:46:58;;;;;;;16.40;14.47;;;;;;;7.86;67.61;96795.00;4951187;28;20491;-69
2023/04/09 01:49:23;;;;;;;14.97;13.47;;;;;;;8.03;66.78;96797.13;4951899;28;20458;-69
2023/04/09 01:51:49;;;;;;;15.27;13.60;;;;;;;7.84;67.09;96792.44;4962478;28;20497;-70
2023/04/09 01:54:15;;;;;;;18.00;14.10;;;;;;;7.74;67.62;96792.72;4956674;28;20293;-70
2023/04/09 01:56:46;;;;;;;15.03;13.43;;;;;;;7.96;66.92;96796.47;4951268;28;20500;-70
2023/04/09 01:59:12;;;;;;;15.37;13.90;;;;;;;8.01;66.72;96789.38;4951615;28;20524;-70
2023/04/09 02:01:44;;;;;;;16.43;14.60;;;;;;;8.02;66.03;96803.28;4951832;28;20428;-70
2023/04/09 02:04:17;;;;;;;16.70;13.43;;;;;;;7.79;67.47;96796.06;4951126;28;20186;-70
2023/04/09 02:07:01;;;;;;;20.20;15.53;;;;;;;7.88;66.79;96803.66;4950972;28;20429;-70
2023/04/09 02:09:30;;;;;;;17.37;14.40;;;;;;;7.93;66.56;96798.31;4955863;28;20429;-70
2023/04/09 02:12:02;;;;;;;16.43;13.63;;;;;;;7.98;66.41;96801.63;4951160;28;20448;-70
2023/04/09 02:14:30;;;;;;;19.90;16.33;;;;;;;7.92;66.42;96805.28;4950995;28;20469;-70
2023/04/09 02:16:56;;;;;;;14.83;13.33;;;;;;;7.89;67.24;96808.00;4968791;28;20425;-70
2023/04/09 02:19:21;;;;;;;16.33;14.57;;;;;;;7.99;65.69;96798.16;4969661;28;20446;-70
2023/04/09 02:21:46;;;;;;;16.43;14.53;;;;;;;7.82;67.12;96796.84;4969707;28;20173;-70
2023/04/09 02:24:12;;;;;;;17.07;14.73;;;;;;;7.91;66.88;96797.47;4969387;28;20239;-70
2023/04/09 02:26:37;;;;;;;16.40;14.70;;;;;;;7.75;67.42;96794.44;4968759;28;20265;-70
2023/04/09 02:29:03;;;;;;;18.17;14.57;;;;;;;7.44;68.17;96797.84;4958844;28;20542;-71
2023/04/09 02:31:28;;;;;;;15.60;13.97;;;;;;;7.50;68.66;96796.81;4957519;28;20224;-70
2023/04/09 02:33:54;;;;;;;15.77;14.17;;;;;;;7.64;68.08;96792.09;4963776;28;20169;-74
2023/04/09 02:36:20;;;;;;;15.03;13.40;;;;;;;7.51;68.34;96793.28;4952949;28;20185;-70
2023/04/09 02:38:45;;;;;;;18.97;15.00;;;;;;;7.35;69.03;96796.31;4950269;28;20477;-70
2023/04/09 02:41:11;;;;;;;18.00;15.20;;;;;;;7.59;68.34;96791.38;4952827;28;20228;-70
2023/04/09 02:43:36;;;;;;;16.23;14.00;;;;;;;7.57;67.97;96793.16;4969063;28;20181;-70
2023/04/09 02:46:02;;;;;;;16.50;14.90;;;;;;;7.63;67.79;96791.25;4958782;28;20248;-70
2023/04/09 02:48:27;;;;;;;17.40;14.20;;;;;;;7.82;67.24;96799.44;4960653;28;20188;-70
2023/04/09 02:50:53;;;;;;;17.27;14.67;;;;;;;7.83;66.88;96795.94;4951002;28;20170;-71
2023/04/09 02:53:20;;;;;;;14.83;13.23;;;;;;;7.80;67.15;96792.56;4954270;28;20503;-69
2023/04/09 02:55:46;;;;;;;14.43;13.00;;;;;;;7.76;67.31;96791.75;4954989;28;20421;-70
2023/04/09 02:58:11;;;;;;;15.40;13.80;;;;;;;7.67;67.08;96788.53;4950055;28;20465;-70
2023/04/09 03:00:37;;;;;;;15.67;13.53;;;;;;;7.65;67.59;96788.56;4950561;28;20225;-70
2023/04/09 03:03:02;;;;;;;17.90;16.00;;;;;;;7.66;67.17;96789.47;4950799;28;20190;-69
2023/04/09 03:05:27;;;;;;;21.30;14.00;;;;;;;7.29;68.85;96793.84;4950051;28;20178;-70
2023/04/09 03:07:53;;;;;;;15.03;13.00;;;;;;;7.59;67.60;96786.13;4950746;28;20166;-70
2023/04/09 03:10:19;;;;;;;18.23;13.90;;;;;;;7.60;67.86;96782.63;4950795;28;20664;-70
2023/04/09 03:12:45;;;;;;;15.43;13.67;;;;;;;7.67;67.27;96781.56;4965027;28;20185;-70
2023/04/09 03:15:10;;;;;;;16.53;14.83;;;;;;;7.62;67.28;96789.50;4950269;28;20178;-70
2023/04/09 03:17:36;;;;;;;19.53;15.27;;;;;;;7.46;67.85;96782.97;4949447;28;20462;-70
2023/04/09 03:20:01;;;;;;;15.67;13.70;;;;;;;7.59;67.97;96775.69;4964215;28;20664;-70
2023/04/09 03:22:27;;;;;;;15.33;13.43;;;;;;;7.55;67.41;96777.50;4951247;28;20193;-70
2023/04/09 03:24:52;;;;;;;19.63;14.47;;;;;;;7.37;68.57;96781.47;4949485;28;20175;-70
2023/04/09 03:27:17;;;;;;;14.93;12.40;;;;;;;7.53;67.57;96776.69;4950190;28;20181;-69
2023/04/09 03:29:43;;;;;;;15.97;14.10;;;;;;;7.61;67.43;96777.38;4949553;28;20205;-71
2023/04/09 03:32:08;;;;;;;19.53;14.43;;;;;;;7.67;67.49;96776.34;4957914;28;20178;-69
2023/04/09 03:34:34;;;;;;;15.87;13.77;;;;;;;7.45;68.12;96775.19;4949585;28;20188;-69
2023/04/09 03:36:59;;;;;;;15.10;13.60;;;;;;;7.60;67.54;96774.78;4959520;28;20178;-69
2023/04/09 03:39:29;;;;;;;14.90;12.73;;;;;;;7.65;67.43;96780.72;4967811;28;20341;-70
2023/04/09 03:41:56;;;;;;;15.20;13.37;;;;;;;7.54;68.17;96778.41;4983304;28;20210;-69
2023/04/09 03:44:22;;;;;;;16.37;14.33;;;;;;;7.59;67.82;96771.31;4966649;28;20504;-69
2023/04/09 03:46:47;;;;;;;16.40;13.20;;;;;;;7.54;68.01;96765.38;4948709;28;20436;-69
2023/04/09 03:49:13;;;;;;;22.13;14.87;;;;;;;7.49;67.78;96769.84;4949335;28;20222;-70
2023/04/09 03:51:38;;;;;;;20.17;14.60;;;;;;;7.52;68.10;96781.97;4949622;28;20527;-70
2023/04/09 03:54:04;;;;;;;15.40;12.97;;;;;;;7.63;67.54;96782.56;4963633;28;20172;-69
2023/04/09 03:56:29;;;;;;;16.33;14.00;;;;;;;7.68;67.50;96769.34;4949446;28;20345;-69
2023/04/09 03:58:55;;;;;;;15.93;12.97;;;;;;;7.57;67.62;96773.09;4950257;28;20273;-69
2023/04/09 04:01:20;;;;;;;17.00;14.80;;;;;;;7.39;68.35;96765.75;4949329;28;20788;-69
2023/04/09 04:03:45;;;;;;;24.93;16.20;;;;;;;7.57;68.14;96777.47;4949113;28;20186;-69
2023/04/09 04:06:11;;;;;;;16.50;14.80;;;;;;;7.50;68.89;96774.16;4948296;28;20175;-69
2023/04/09 04:08:36;;;;;;;17.17;14.13;;;;;;;7.54;67.97;96773.19;4955873;28;20551;-69
2023/04/09 04:11:03;;;;;;;20.27;14.33;;;;;;;7.53;68.21;96774.06;4949445;28;20800;-69
2023/04/09 04:13:29;;;;;;;17.63;14.93;;;;;;;7.39;68.73;96774.47;4949097;28;20174;-70
2023/04/09 04:15:54;;;;;;;20.50;15.40;;;;;;;7.26;68.88;96772.19;4948157;28;20440;-70
2023/04/09 04:18:20;;;;;;;19.17;15.20;;;;;;;7.36;68.83;96778.88;4961532;28;20584;-69
2023/04/09 04:20:45;;;;;;;19.17;14.73;;;;;;;7.33;68.44;96776.34;4967013;28;20268;-69
2023/04/09 04:23:11;;;;;;;28.13;16.63;;;;;;;7.51;68.60;96778.50;4967118;28;20227;-69
2023/04/09 04:25:40;;;;;;;22.23;14.60;;;;;;;7.58;68.42;96779.19;4966644;28;20173;-69
2023/04/09 04:28:05;;;;;;;20.70;14.20;;;;;;;7.55;67.86;96779.28;4967736;28;20170;-70
2023/04/09 04:30:30;;;;;;;19.37;15.47;;;;;;;7.56;68.11;96780.97;4964327;28;20446;-69
2023/04/09 04:32:56;;;;;;;17.93;16.03;;;;;;;7.60;67.44;96788.69;4949174;28;20273;-69
2023/04/09 04:35:21;;;;;;;14.90;13.40;;;;;;;7.26;69.22;96796.53;4948857;28;20205;-69
2023/04/09 04:37:50;;;;;;;15.87;14.13;;;;;;;7.15;69.48;96790.72;4947310;28;20600;-69
2023/04/09 04:40:16;;;;;;;18.20;15.67;;;;;;;7.25;69.47;96792.19;4955630;28;20209;-69
2023/04/09 04:42:41;;;;;;;24.97;15.23;;;;;;;7.10;69.69;96789.97;4967404;28;20983;-69
2023/04/09 04:45:07;;;;;;;17.20;15.40;;;;;;;6.99;69.81;96790.19;4967170;28;20424;-70
2023/04/09 04:47:33;;;;;;;15.63;13.93;;;;;;;6.99;70.28;96792.81;4967022;28;20584;-70
2023/04/09 04:49:58;;;;;;;21.17;15.47;;;;;;;7.16;69.76;96789.84;4967038;28;20459;-69
2023/04/09 04:52:24;;;;;;;22.00;16.37;;;;;;;7.26;69.54;96783.47;4967732;28;20858;-70
2023/04/09 04:54:49;;;;;;;20.50;16.57;;;;;;;7.14;69.44;96792.47;4959494;28;20245;-69
2023/04/09 04:57:15;;;;;;;19.70;15.10;;;;;;;7.06;70.10;96796.13;4962323;28;20177;-69
2023/04/09 04:59:40;;;;;;;18.40;15.40;;;;;;;6.84;70.78;96794.03;4967078;28;20284;-71
2023/04/09 05:02:06;;;;;;;18.70;15.90;;;;;;;6.79;71.02;96795.91;4959937;28;20182;-71
2023/04/09 05:04:32;;;;;;;16.37;14.60;;;;;;;6.78;70.98;96796.81;4948696;28;20177;-69
2023/04/09 05:06:57;;;;;;;21.40;14.60;;;;;;;7.18;69.66;96806.28;4947895;28;20474;-71
2023/04/09 05:09:23;;;;;;;15.47;13.87;;;;;;;6.91;70.48;96802.59;4948138;28;20241;-71
2023/04/09 05:11:48;;;;;;;17.53;14.17;;;;;;;6.73;72.12;96803.84;4955533;28;20247;-72
2023/04/09 05:14:13;;;;;;;19.90;15.60;;;;;;;6.91;71.22;96803.44;4957737;28;20619;-71
2023/04/09 05:16:39;;;;;;;21.80;15.50;;;;;;;6.86;70.95;96813.13;4958226;28;20178;-71
2023/04/09 05:19:04;;;;;;;29.50;15.70;;;;;;;6.99;70.84;96811.97;4954283;28;20230;-70
2023/04/09 05:21:30;;;;;;;21.60;16.20;;;;;;;6.99;70.59;96813.69;4955196;28;20232;-70
2023/04/09 05:23:56;;;;;;;16.57;14.20;;;;;;;6.83;70.69;96815.81;4958244;28;20190;-71
2023/04/09 05:26:22;;;;;;;18.47;15.50;;;;;;;6.88;71.14;96815.72;4948167;28;20430;-71
2023/04/09 05:28:47;;;;;;;28.47;14.90;;;;;;;6.67;71.97;96815.28;4950161;28;20198;-70
2023/04/09 05:31:14;;;;;;;16.37;14.60;;;;;;;6.74;71.73;96810.78;4957451;28;20206;-70
2023/04/09 05:33:40;;;;;;;17.47;15.60;;;;;;;6.92;71.38;96817.34;4962970;28;20551;-70
2023/04/09 05:36:06;;;;;;;18.23;15.93;;;;;;;6.90;70.94;96814.78;4959184;28;20413;-70
2023/04/09 05:38:32;;;;;;;18.33;16.00;;;;;;;6.54;72.44;96821.63;4967405;28;20212;-70
2023/04/09 05:40:57;;;;;;;27.77;16.40;;;;;;;6.87;71.78;96819.19;4963687;28;20437;-69
2023/04/09 05:43:23;;;;;;;29.13;16.47;;;;;;;7.03;70.92;96815.34;4954099;28;20229;-69
2023/04/09 05:45:48;;;;;;;24.23;15.23;;;;;;;6.77;71.51;96819.38;4951850;28;20213;-69
2023/04/09 05:48:14;;;;;;;16.80;14.60;;;;;;;6.82;71.69;96818.44;4951866;28;20206;-70
2023/04/09 05:50:39;;;;;;;19.77;15.00;;;;;;;6.78;71.75;96818.53;4960764;28;20197;-70
2023/04/09 05:53:05;;;;;;;20.93;16.23;;;;;;;6.95;71.43;96815.53;4965093;28;20181;-70
2023/04/09 05:55:31;;;;;;;16.33;14.50;;;;;;;6.77;71.81;96821.16;4968191;28;20190;-69
2023/04/09 05:57:57;;;;;;;17.40;14.20;;;;;;;6.39;73.10;96828.03;4966675;28;20202;-69
2023/04/09 06:00:22;;;;;;;19.83;15.73;;;;;;;6.13;73.84;96823.34;4958233;28;20445;-69
2023/04/09 06:02:48;;;;;;;21.70;16.40;;;;;;;6.73;72.63;96816.88;4969987;28;20181;-69
2023/04/09 06:05:14;;;;;;;18.33;15.67;;;;;;;7.07;70.99;96819.59;4960154;28;20190;-69
2023/04/09 06:07:39;;;;;;;19.93;15.43;;;;;;;6.92;70.92;96815.59;4950678;28;20612;-69
2023/04/09 06:10:05;;;;;;;21.90;16.30;;;;;;;7.15;70.45;96822.88;4956208;28;20212;-69
2023/04/09 06:12:33;;;;;;;19.30;15.83;;;;;;;6.65;71.79;96831.84;4954868;28;20600;-69
2023/04/09 06:14:59;;;;;;;21.83;15.90;;;;;;;6.67;72.32;96830.06;4956087;28;20465;-69
2023/04/09 06:17:24;;;;;;;18.97;16.57;;;;;;;6.50;72.90;96831.28;4969109;28;20927;-69
2023/04/09 06:19:50;;;;;;;21.37;16.93;;;;;;;6.88;71.51;96821.78;4964965;28;20269;-69
2023/04/09 06:22:15;;;;;;;19.40;16.80;;;;;;;6.85;71.60;96831.41;4952403;28;20290;-69
2023/04/09 06:24:41;;;;;;;23.20;18.90;;;;;;;6.60;72.26;96836.31;4956315;28;20181;-68
2023/04/09 06:27:06;;;;;;;19.70;16.63;;;;;;;6.76;74.67;96841.16;4965580;28;20185;-69
2023/04/09 06:29:32;;;;;;;33.97;16.57;;;;;;;6.88;71.48;96836.56;4975852;28;20207;-69
2023/04/09 06:31:58;;;;;;;27.23;16.50;;;;;;;7.16;70.41;96836.81;4961567;28;20185;-69
2023/04/09 06:34:23;;;;;;;19.50;15.60;;;;;;;7.22;70.04;96837.50;4967467;28;20208;-71
2023/04/09 06:36:49;;;;;;;22.87;16.57;;;;;;;6.80;71.37;96847.16;4969970;28;20177;-71
2023/04/09 06:39:14;;;;;;;20.20;16.20;;;;;;;6.49;72.48;96845.19;4971565;28;20221;-70
2023/04/09 06:41:40;;;;;;;20.70;16.13;;;;;;;6.27;73.47;96849.16;4985992;28;20195;-70
2023/04/09 06:44:05;;;;;;;19.70;17.10;;;;;;;6.06;74.42;96848.66;4957424;28;20186;-70
2023/04/09 06:46:30;;;;;;;20.80;16.70;;;;;;;6.26;73.60;96853.50;4950128;28;20217;-70
2023/04/09 06:48:56;;;;;;;22.33;17.37;;;;;;;6.08;74.40;96846.88;4968239;28;20727;-70
2023/04/09 06:51:21;;;;;;;22.03;17.43;;;;;;;5.98;74.80;96860.13;4957285;28;20257;-70
2023/04/09 06:53:47;;;;;;;21.93;16.43;;;;;;;5.78;75.58;96852.63;4950376;28;20237;-70
2023/04/09 06:56:12;;;;;;;23.60;19.97;;;;;;;5.78;75.87;96857.84;4954999;28;20213;-70
2023/04/09 06:58:38;;;;;;;21.10;17.93;;;;;;;5.85;75.62;96870.72;4959078;28;20623;-69
2023/04/09 07:01:04;;;;;;;21.17;17.80;;;;;;;6.09;75.13;96869.44;4951695;28;20196;-71
2023/04/09 07:03:30;;;;;;;22.40;18.77;;;;;;;6.50;73.12;96859.13;4959971;28;20983;-71
2023/04/09 07:05:56;;;;;;;23.67;18.83;;;;;;;6.88;71.73;96852.22;4961910;28;20471;-71
2023/04/09 07:08:22;;;;;;;19.93;17.20;;;;;;;7.12;70.40;96850.81;4950573;28;20613;-71
2023/04/09 07:10:47;;;;;;;23.27;18.13;;;;;;;7.02;70.58;96852.78;4967780;28;20444;-71
2023/04/09 07:13:13;;;;;;;22.40;17.63;;;;;;;7.21;70.28;96859.28;4967571;28;20209;-71
2023/04/09 07:15:38;;;;;;;28.13;18.07;;;;;;;7.49;69.11;96862.97;4968850;28;20204;-71
2023/04/09 07:18:04;;;;;;;24.50;19.17;;;;;;;6.77;70.98;96861.13;4968507;28;20209;-71
2023/04/09 07:20:30;;;;;;;22.47;17.67;;;;;;;6.53;72.21;96870.31;4966921;28;20982;-71
2023/04/09 07:22:55;;;;;;;28.80;19.27;;;;;;;6.20;72.93;96868.41;4951940;28;20429;-71
2023/04/09 07:25:20;;;;;;;25.60;19.30;;;;;;;6.28;73.31;96871.69;4968419;28;20191;-70
2023/04/09 07:27:46;;;;;;;24.23;19.97;;;;;;;6.02;74.04;96880.84;4967964;28;20193;-71
2023/04/09 07:30:11;;;;;;;26.57;19.83;;;;;;;6.04;74.38;96881.69;4958298;28;20304;-70
2023/04/09 07:32:37;;;;;;;22.27;18.33;;;;;;;6.08;73.50;96887.72;4963172;28;20208;-71
2023/04/09 07:35:06;;;;;;;27.57;19.50;;;;;;;6.35;72.71;96889.81;4956207;28;20185;-71
2023/04/09 07:37:32;;;;;;;23.70;18.60;;;;;;;6.34;73.17;96885.47;4949063;28;20205;-71
2023/04/09 07:39:57;;;;;;;24.90;18.70;;;;;;;6.50;72.86;96886.03;4949101;29;20449;-71
2023/04/09 07:42:23;;;;;;;23.10;18.57;;;;;;;6.49;71.50;96894.72;4949873;29;20182;-69
2023/04/09 07:44:49;;;;;;;26.63;19.40;;;;;;;6.28;71.80;96889.94;4949616;29;20639;-72
2023/04/09 07:47:15;;;;;;;30.23;19.30;;;;;;;6.26;72.04;96899.53;4956542;28;20182;-71
2023/04/09 07:49:40;;;;;;;24.57;18.23;;;;;;;6.30;72.43;96893.38;4972651;28;20188;-71
2023/04/09 07:52:06;;;;;;;24.50;19.10;;;;;;;6.41;71.80;96895.78;4989461;28;20200;-71
2023/04/09 07:54:33;;;;;;;25.20;19.03;;;;;;;6.41;72.11;96901.88;4950501;28;20174;-71
2023/04/09 07:57:00;;;;;;;21.07;17.67;;;;;;;6.49;71.58;96905.16;4956784;28;20441;-71
2023/04/09 07:59:26;;;;;;;25.87;19.07;;;;;;;6.29;71.35;96899.50;4960201;28;20464;-70
2023/04/09 08:01:52;;;;;;;23.83;19.80;;;;;;;6.34;71.87;96908.09;4970981;28;20471;-72
2023/04/09 08:04:17;;;;;;;23.80;19.30;;;;;;;6.69;70.84;96896.09;4973814;28;20471;-70
2023/04/09 08:06:49;;;;;;;25.53;17.83;;;;;;;6.69;70.31;96894.34;4965806;28;20195;-71
2023/04/09 08:09:18;;;;;;;30.50;18.70;;;;;;;6.70;70.97;96900.41;4972986;28;20296;-70
2023/04/09 08:11:44;;;;;;;25.47;18.50;;;;;;;6.33;71.81;96898.53;4971488;28;20413;-70
2023/04/09 08:14:11;;;;;;;26.50;18.90;;;;;;;6.81;70.41;96903.66;4966392;28;20440;-70
2023/04/09 08:16:40;;;;;;;23.43;17.30;;;;;;;6.96;69.77;96902.47;4968883;28;20260;-70
2023/04/09 08:19:05;;;;;;;20.37;17.03;;;;;;;7.10;68.66;96903.03;4968433;28;20474;-70
2023/04/09 08:21:31;;;;;;;22.67;17.80;;;;;;;7.27;67.77;96907.88;4951838;28;20425;-70
2023/04/09 08:24:00;;;;;;;19.33;15.80;;;;;;;7.79;65.98;96882.28;4964545;28;20176;-70
2023/04/09 08:26:25;;;;;;;20.27;15.23;;;;;;;9.26;61.26;96886.06;4986658;28;20169;-70
2023/04/09 08:28:51;;;;;;;23.10;18.07;;;;;;;8.53;63.01;96891.69;4987324;28;20435;-70
2023/04/09 08:31:16;;;;;;;21.87;16.30;;;;;;;8.24;63.74;96889.81;4978412;28;20651;-71
2023/04/09 08:33:41;;;;;;;20.00;16.80;;;;;;;8.26;63.84;96891.47;4951123;28;20253;-70
2023/04/09 08:36:08;;;;;;;17.73;15.57;;;;;;;8.22;63.92;96884.66;4948075;28;20232;-70
2023/04/09 08:38:33;;;;;;;19.33;15.27;;;;;;;8.84;62.08;96883.81;4947506;28;20305;-70
2023/04/09 08:40:59;;;;;;;21.53;16.50;;;;;;;9.28;60.46;96879.00;4948625;29;20872;-71
2023/04/09 08:43:27;;;;;;;23.60;16.97;;;;;;;9.39;60.96;96883.03;4948652;29;20182;-70
2023/04/09 08:45:56;;;;;;;18.87;16.13;;;;;;;9.94;58.19;96883.84;4949752;28;20178;-69
2023/04/09 08:48:23;;;;;;;18.90;15.27;;;;;;;9.46;56.99;96880.16;4968072;28;20437;-69
2023/04/09 08:50:49;;;;;;;17.33;15.53;;;;;;;8.84;60.10;96890.81;4968041;28;20543;-70
2023/04/09 08:53:16;;;;;;;19.20;15.33;;;;;;;9.59;58.82;96882.41;4968201;28;20515;-70
2023/04/09 08:55:45;;;;;;;17.30;14.00;;;;;;;10.08;58.45;96875.53;4967059;28;20177;-70
2023/04/09 08:58:11;;;;;;;18.77;15.33;;;;;;;10.91;56.28;96878.69;4967526;28;20998;-70
2023/04/09 09:00:36;;;;;;;19.33;15.37;;;;;;;10.73;55.06;96876.75;4976782;28;20460;-70
2023/04/09 09:03:11;;;;;;;16.87;13.93;;;;;;;10.20;56.08;96884.72;4987252;28;20272;-70
2023/04/09 09:05:41;;;;;;;18.13;15.23;;;;;;;10.43;55.82;96886.59;4986846;28;20183;-70
2023/04/09 09:08:09;;;;;;;19.43;14.47;;;;;;;10.50;54.68;96891.56;4986814;28;20404;-69
2023/04/09 09:10:44;;;;;;;18.90;14.93;;;;;;;9.62;55.96;96891.03;4950021;28;20481;-70
2023/04/09 09:13:16;;;;;;;101.10;24.77;;;;;;;10.34;55.14;96888.63;4972931;28;20959;-69
2023/04/09 09:15:42;;;;;;;71.63;22.13;;;;;;;11.02;52.49;96878.28;4961674;28;20970;-69
2023/04/09 09:18:07;;;;;;;23.13;14.67;;;;;;;10.73;52.46;96890.75;4956561;28;20465;-69
2023/04/09 09:20:33;;;;;;;21.57;14.23;;;;;;;10.25;53.01;96885.44;4971149;28;20194;-70
2023/04/09 09:22:59;;;;;;;18.03;15.03;;;;;;;10.71;51.78;96887.31;4964778;28;20182;-70
2023/04/09 09:25:24;;;;;;;19.23;13.43;;;;;;;11.44;51.28;96885.44;4951684;28;20205;-69
2023/04/09 09:27:51;;;;;;;22.67;14.87;;;;;;;12.06;48.08;96876.75;4955034;28;20473;-69
2023/04/09 09:30:26;;;;;;;23.83;14.10;;;;;;;10.96;49.62;96882.00;4960361;28;20906;-68
2023/04/09 09:32:53;;;;;;;18.13;13.57;;;;;;;10.68;50.68;96884.81;4953451;28;20424;-68
2023/04/09 09:35:19;;;;;;;14.70;12.70;;;;;;;11.54;49.25;96876.25;4959082;28;20522;-69
2023/04/09 09:37:44;;;;;;;14.53;12.93;;;;;;;12.53;47.93;96870.38;4959747;28;21147;-69
2023/04/09 09:40:25;;;;;;;15.67;13.47;;;;;;;12.46;48.10;96872.41;4961391;28;20259;-68
2023/04/09 09:42:55;;;;;;;14.77;13.00;;;;;;;11.90;46.09;96870.44;4960651;28;20280;-67
2023/04/09 09:45:21;;;;;;;12.70;11.50;;;;;;;11.35;46.20;96884.00;4963329;28;20442;-67
2023/04/09 09:47:47;;;;;;;13.47;11.60;;;;;;;10.99;47.15;96876.63;4957963;28;20288;-68
2023/04/09 09:50:14;;;;;;;13.10;11.70;;;;;;;10.88;47.06;96876.19;4959412;28;20585;-67
2023/04/09 09:52:43;;;;;;;11.77;10.37;;;;;;;11.18;46.03;96874.16;4959905;28;20416;-68
2023/04/09 09:55:12;;;;;;;12.83;10.77;;;;;;;11.79;44.95;96859.50;4968250;28;20177;-67
2023/04/09 09:57:41;;;;;;;14.43;12.50;;;;;;;12.24;44.01;96855.88;4969212;28;21199;-68
2023/04/09 10:00:07;;;;;;;14.00;12.13;;;;;;;11.77;45.51;96858.69;4970261;28;20527;-69
2023/04/09 10:02:42;;;;;;;16.03;11.10;;;;;;;11.17;44.54;96861.97;4969906;28;20435;-68
2023/04/09 10:05:08;;;;;;;12.20;10.93;;;;;;;10.87;45.89;96853.47;4956518;28;20420;-69
2023/04/09 10:07:36;;;;;;;14.43;10.93;;;;;;;10.74;46.82;96847.81;4950095;28;20413;-68
2023/04/09 10:10:04;;;;;;;12.10;10.50;;;;;;;10.98;46.94;96855.69;4950002;28;20426;-69
2023/04/09 10:12:31;;;;;;;12.43;11.13;;;;;;;11.76;46.01;96847.31;4950300;28;20907;-68
2023/04/09 10:15:03;;;;;;;10.73;9.43;;;;;;;11.64;43.80;96832.91;4950868;28;20568;-68
2023/04/09 10:17:29;;;;;;;10.83;9.77;;;;;;;11.90;43.16;96844.13;4962779;28;20428;-69
2023/04/09 10:20:15;;;;;;;13.17;8.60;;;;;;;11.63;40.88;96831.19;4961459;28;20565;-67
2023/04/09 10:22:44;;;;;;;11.10;8.47;;;;;;;11.63;42.41;96831.19;4954200;28;20925;-68
2023/04/09 10:25:10;;;;;;;9.20;8.03;;;;;;;11.03;42.47;96845.84;4968653;28;20499;-67
2023/04/09 10:27:35;;;;;;;11.20;9.13;;;;;;;11.12;43.22;96840.25;4968789;28;20417;-67
2023/04/09 10:30:01;;;;;;;11.80;9.90;;;;;;;11.29;43.55;96843.97;4969871;28;20561;-67
2023/04/09 10:32:27;;;;;;;14.13;10.53;;;;;;;11.42;43.17;96832.06;4951097;28;20189;-68
2023/04/09 10:34:56;;;;;;;11.53;9.47;;;;;;;11.90;41.96;96840.66;4950052;28;20178;-68
2023/04/09 10:37:24;;;;;;;10.40;8.73;;;;;;;11.78;41.82;96836.72;4949606;28;20581;-67
2023/04/09 10:39:51;;;;;;;8.90;8.00;;;;;;;11.30;41.47;96843.09;4949460;28;21025;-68
2023/04/09 10:42:39;;;;;;;9.67;8.10;;;;;;;11.36;40.58;96842.81;4950165;28;20663;-67
2023/04/09 10:45:13;;;;;;;10.83;8.03;;;;;;;11.97;39.87;96840.31;4947905;28;20425;-67
2023/04/09 10:47:41;;;;;;;14.07;10.20;;;;;;;12.18;42.79;96830.66;4958213;28;20507;-67
2023/04/09 10:50:26;;;;;;;11.00;9.80;;;;;;;12.21;40.80;96840.19;4965832;28;20663;-68
2023/04/09 10:52:55;;;;;;;8.83;7.83;;;;;;;11.55;39.90;96846.44;4957038;28;20430;-69
2023/04/09 10:55:37;;;;;;;9.50;7.97;;;;;;;11.16;40.21;96847.09;4957033;28;21242;-69
2023/04/09 10:58:07;;;;;;;11.27;8.10;;;;;;;11.43;40.70;96842.53;4964331;28;21194;-69
2023/04/09 11:00:56;;;;;;;10.13;8.40;;;;;;;11.65;40.05;96829.34;4963291;28;20543;-69
2023/04/09 11:03:24;;;;;;;10.97;9.70;;;;;;;11.76;40.34;96822.78;4948504;28;20442;-69
2023/04/09 11:06:09;;;;;;;10.63;8.47;;;;;;;12.08;39.87;96822.31;4939370;28;20807;-69
2023/04/09 11:08:36;;;;;;;11.60;8.77;;;;;;;12.37;38.93;96820.19;4940384;28;20446;-69
2023/04/09 11:11:02;;;;;;;10.73;8.30;;;;;;;12.29;38.48;96828.44;4939459;28;20818;-69
2023/04/09 11:13:29;;;;;;;9.50;7.60;;;;;;;12.50;38.25;96816.09;4937426;28;20427;-68
2023/04/09 11:15:55;;;;;;;9.87;7.70;;;;;;;11.95;39.49;96823.78;4938393;28;20178;-68
2023/04/09 11:18:28;;;;;;;10.05;8.77;;;;;;;11.40;40.67;96831.28;4930236;29;20555;-68
2023/04/09 11:20:58;;;;;;;13.03;9.33;;;;;;;12.00;39.33;96816.53;4934262;29;20309;-68
2023/04/09 11:23:25;;;;;;;8.43;6.73;;;;;;;12.24;38.48;96809.34;4940040;28;20449;-68
2023/04/09 11:25:51;;;;;;;8.33;7.40;;;;;;;12.03;39.29;96815.56;4951855;28;20417;-68